Terminal Aerodrome Forecast
Issued by NWS

Home | Current Version | Previous Version | Text Only | Print | Product List | Glossary On
Versions: 1 2 3 4 5 6 7 8 9 10 11 12 13 14 15 16 17 18 19 20 21 22 23 24
000
FTUS41 KBTV 221729
TAFMSS
TAF
KMSS 221729Z 2218/2318 05005KT 6SM BR OVC025
     FM230800 05007KT P6SM -FZDZSN OVC015
     FM231300 06007KT 2SM -RA BR OVC015
     FM231600 07009KT 5SM BR OVC015=

USA.gov is the U.S. government's official web portal to all federal, state and local government web resources and services.